Time;durP1;ratioP1;P1;durP2;ratioP2;P2;SDS_P1;SDS_P2;PMS_P1;PMS_P2;Temp;Humidity;BMP_temperature;BMP_pressure;BME280_temperature;BME280_humidity;BME280_pressure;Samples;Min_cycle;Max_cycle;Signal;HPM_P1;HPM_P2
2022/06/08 00:00:49;;;;;;;3.00;1.90;;;;;;;26.43;47.61;99221.47;5069320;28;20413;-85
2022/06/08 00:03:23;;;;;;;2.70;1.80;;;;;;;26.43;47.37;99226.81;5069179;28;20053;-83
2022/06/08 00:05:49;;;;;;;3.22;1.80;;;;;;;26.42;47.31;99219.78;5068778;28;20021;-83
2022/06/08 00:08:14;;;;;;;4.38;1.70;;;;;;;26.41;47.68;99207.41;5078524;28;20054;-82
2022/06/08 00:10:40;;;;;;;3.05;1.70;;;;;;;26.40;47.43;99213.72;5077971;28;20089;-80
2022/06/08 00:13:07;;;;;;;3.45;1.77;;;;;;;26.41;47.47;99196.69;5078480;28;20070;-81
2022/06/08 00:15:33;;;;;;;3.53;1.80;;;;;;;26.39;47.71;99193.31;5078157;28;20354;-82
2022/06/08 00:17:59;;;;;;;2.42;1.52;;;;;;;26.40;47.54;99195.00;5078411;28;20442;-81
2022/06/08 00:20:25;;;;;;;2.80;1.80;;;;;;;26.40;47.61;99200.34;5060219;28;20021;-81
2022/06/08 00:22:53;;;;;;;3.25;1.80;;;;;;;26.39;47.69;99187.97;5077634;28;20070;-81
2022/06/08 00:25:19;;;;;;;4.50;1.77;;;;;;;26.38;47.57;99186.25;5059977;28;20084;-82
2022/06/08 00:27:45;;;;;;;3.92;2.00;;;;;;;26.38;47.49;99187.09;5059972;28;20024;-83
2022/06/08 00:30:11;;;;;;;3.38;1.80;;;;;;;26.37;47.71;99174.72;5079863;28;20024;-81
2022/06/08 00:32:37;;;;;;;2.03;1.55;;;;;;;26.37;47.99;99171.19;5078639;28;20454;-81
2022/06/08 00:35:04;;;;;;;3.05;1.85;;;;;;;26.37;47.40;99176.53;5062271;28;20031;-81
2022/06/08 00:37:30;;;;;;;3.83;1.83;;;;;;;26.35;47.69;99173.16;5077157;28;20107;-82
2022/06/08 00:39:55;;;;;;;2.63;1.80;;;;;;;26.35;47.58;99175.84;5059530;28;20070;-81
2022/06/08 00:42:21;;;;;;;3.53;2.10;;;;;;;26.34;47.38;99171.47;5077641;28;20017;-81
2022/06/08 00:45:00;;;;;;;3.15;1.85;;;;;;;26.33;47.83;99164.44;5077580;28;20021;-83
2022/06/08 00:47:31;;;;;;;3.00;2.10;;;;;;;26.32;47.54;99166.25;5059535;28;20025;-83
2022/06/08 00:49:58;;;;;;;2.83;1.85;;;;;;;26.33;47.83;99161.78;5059267;28;20024;-81
2022/06/08 00:52:26;;;;;;;2.63;1.77;;;;;;;26.31;47.67;99163.72;5076919;28;20040;-83
2022/06/08 00:54:57;;;;;;;2.88;1.83;;;;;;;26.29;47.70;99161.16;5077118;28;20024;-83
2022/06/08 00:57:36;;;;;;;3.40;1.83;;;;;;;26.30;47.81;99156.69;5059436;28;20461;-84
2022/06/08 01:00:16;;;;;;;3.35;1.80;;;;;;;26.30;47.90;99156.69;5059427;28;20038;-84
2022/06/08 01:02:42;;;;;;;3.30;1.90;;;;;;;26.28;47.50;99159.47;5059292;28;20048;-81
2022/06/08 01:05:30;;;;;;;3.42;1.63;;;;;;;26.29;48.00;99157.66;5060017;28;20057;-84
2022/06/08 01:07:59;;;;;;;3.25;1.90;;;;;;;26.27;47.88;99147.94;5077881;28;20025;-84
2022/06/08 01:10:33;;;;;;;4.72;2.25;;;;;;;26.26;47.88;99146.22;5059222;28;20027;-82
2022/06/08 01:13:04;;;;;;;3.13;1.85;;;;;;;26.26;47.68;99135.53;5058938;28;20531;-84
2022/06/08 01:15:32;;;;;;;3.08;1.90;;;;;;;26.26;48.03;99129.38;5060949;28;20389;-81
2022/06/08 01:17:57;;;;;;;2.95;1.73;;;;;;;26.24;48.02;99126.81;5059076;28;20035;-81
2022/06/08 01:20:23;;;;;;;2.88;1.90;;;;;;;26.24;48.01;99116.13;5076741;28;20025;-82
2022/06/08 01:22:49;;;;;;;3.08;1.90;;;;;;;26.24;47.84;99108.09;5059657;28;20025;-84
2022/06/08 01:25:15;;;;;;;3.58;1.90;;;;;;;26.23;47.53;99103.75;5077028;28;20066;-83
2022/06/08 01:27:56;;;;;;;4.13;2.00;;;;;;;26.23;47.70;99105.56;5059405;28;20485;-83
2022/06/08 01:30:26;;;;;;;2.97;1.92;;;;;;;26.23;48.03;99093.03;5058777;28;20040;-83
2022/06/08 01:33:10;;;;;;;3.92;2.10;;;;;;;26.25;48.01;99101.75;5058905;28;20101;-81
2022/06/08 01:36:03;;;;;;;3.30;1.92;;;;;;;26.23;47.80;99093.03;5059164;28;20024;-84
2022/06/08 01:38:43;;;;;;;2.00;1.60;;;;;;;26.22;47.92;99103.84;5058498;28;20032;-81
2022/06/08 01:41:15;;;;;;;3.25;1.77;;;;;;;26.20;47.98;99093.28;5058620;28;20138;-82
2022/06/08 01:43:48;;;;;;;2.42;1.70;;;;;;;26.18;47.89;99084.53;5058845;28;20556;-81
2022/06/08 01:46:29;;;;;;;2.70;1.70;;;;;;;26.19;47.79;99080.88;5076637;28;20169;-83
2022/06/08 01:49:16;;;;;;;3.63;1.90;;;;;;;26.20;47.72;99074.56;5075283;28;20020;-84
2022/06/08 01:52:03;;;;;;;3.47;1.98;;;;;;;26.20;47.91;99077.22;5058603;28;20028;-83
2022/06/08 01:54:57;;;;;;;3.00;1.60;;;;;;;26.18;47.95;99068.50;5060502;28;20032;-85
2022/06/08 01:57:40;;;;;;;4.05;2.25;;;;;;;26.17;47.82;99061.47;5060929;28;20036;-81
2022/06/08 02:00:14;;;;;;;2.85;1.67;;;;;;;26.19;47.73;99064.84;5059912;28;20020;-83
2022/06/08 02:02:58;;;;;;;2.90;1.63;;;;;;;26.20;47.90;99065.69;5060313;28;20051;-85
2022/06/08 02:05:33;;;;;;;2.85;1.60;;;;;;;26.17;47.67;99072.16;5060802;28;20029;-84
2022/06/08 02:08:09;;;;;;;2.88;1.83;;;;;;;26.18;47.91;99070.31;5080288;28;20032;-81
2022/06/08 02:11:13;;;;;;;3.13;1.80;;;;;;;26.17;47.92;99073.97;5098479;27;20377;-85
2022/06/08 02:13:45;;;;;;;2.83;1.60;;;;;;;26.15;47.86;99068.78;5096381;28;20048;-84
2022/06/08 02:16:28;;;;;;;2.45;1.73;;;;;;;26.15;47.80;99068.78;5101086;28;20032;-84
2022/06/08 02:18:59;;;;;;;3.95;1.80;;;;;;;26.14;48.19;99069.75;5101484;28;20059;-85
2022/06/08 02:21:36;;;;;;;2.60;1.63;;;;;;;26.12;48.07;99061.03;5101085;28;20032;-86
2022/06/08 02:24:11;;;;;;;3.25;1.85;;;;;;;26.11;48.15;99067.38;5101974;28;20024;-85
2022/06/08 02:26:44;;;;;;;2.33;1.60;;;;;;;26.11;47.88;99073.53;5100711;28;20028;-85
2022/06/08 02:29:23;;;;;;;3.65;1.77;;;;;;;26.11;47.89;99067.38;5095903;28;20031;-82
2022/06/08 02:31:58;;;;;;;3.13;1.50;;;;;;;26.08;47.88;99063.13;5095504;28;20064;-83
2022/06/08 02:34:43;;;;;;;3.22;1.77;;;;;;;26.08;48.07;99064.94;5094751;28;20061;-84
2022/06/08 02:37:22;;;;;;;2.78;1.70;;;;;;;26.05;47.88;99062.56;5095622;28;20051;-84
2022/06/08 02:39:47;;;;;;;3.35;1.90;;;;;;;26.06;48.11;99073.13;5096987;28;20115;-80
2022/06/08 02:42:19;;;;;;;2.97;1.70;;;;;;;26.06;48.08;99069.59;5092507;28;20129;-81
2022/06/08 02:44:49;;;;;;;2.00;1.50;;;;;;;26.04;47.69;99060.88;5092044;28;20047;-81
2022/06/08 02:47:27;;;;;;;2.55;1.65;;;;;;;26.03;47.87;99059.16;5091922;28;20458;-81
2022/06/08 02:49:53;;;;;;;2.45;1.50;;;;;;;26.01;48.06;99054.81;5090807;28;20432;-81
2022/06/08 02:52:22;;;;;;;2.88;1.73;;;;;;;25.98;48.08;99057.78;5090908;28;20100;-81
2022/06/08 02:54:49;;;;;;;2.78;1.63;;;;;;;25.99;48.13;99064.81;5091746;28;20032;-82
2022/06/08 02:57:28;;;;;;;2.90;1.55;;;;;;;25.99;48.01;99056.78;5091819;28;20485;-82
2022/06/08 03:00:00;;;;;;;3.25;1.77;;;;;;;26.01;47.96;99056.66;5091584;28;20031;-81
2022/06/08 03:02:33;;;;;;;2.95;1.45;;;;;;;25.97;48.06;99060.56;5090350;28;20465;-80
2022/06/08 03:05:19;;;;;;;2.50;1.48;;;;;;;25.97;47.98;99060.56;5090391;28;20119;-83
2022/06/08 03:07:51;;;;;;;3.13;1.77;;;;;;;25.98;48.05;99055.09;5091701;28;20032;-82
2022/06/08 03:10:19;;;;;;;1.60;1.30;;;;;;;25.97;48.03;99055.22;5090078;28;20492;-83
2022/06/08 03:13:02;;;;;;;2.72;1.65;;;;;;;25.95;47.98;99060.69;5090477;28;20060;-81
2022/06/08 03:15:28;;;;;;;3.72;1.88;;;;;;;25.97;48.12;99045.41;5091565;28;20369;-81
2022/06/08 03:17:53;;;;;;;2.75;1.70;;;;;;;25.96;48.18;99042.84;5090381;28;20020;-84
2022/06/08 03:20:22;;;;;;;2.72;1.80;;;;;;;25.94;48.29;99042.97;5086830;28;20035;-81
2022/06/08 03:22:48;;;;;;;2.05;1.50;;;;;;;25.93;48.42;99038.63;5078959;28;20097;-83
2022/06/08 03:25:15;;;;;;;2.88;1.50;;;;;;;25.92;47.99;99028.06;5076726;28;20041;-81
2022/06/08 03:27:43;;;;;;;3.78;2.00;;;;;;;25.90;48.28;99027.34;5076761;28;20032;-82
2022/06/08 03:30:09;;;;;;;3.08;1.52;;;;;;;25.89;48.28;99021.16;5076706;28;20521;-81
2022/06/08 03:32:34;;;;;;;3.58;2.03;;;;;;;25.89;47.98;99014.97;5077856;28;20036;-82
2022/06/08 03:35:00;;;;;;;3.50;1.90;;;;;;;25.89;48.07;99018.47;5077784;28;20054;-82
2022/06/08 03:37:25;;;;;;;3.15;1.90;;;;;;;25.87;48.34;99017.78;5076567;28;20051;-84
2022/06/08 03:39:51;;;;;;;2.30;1.40;;;;;;;25.89;47.98;99025.69;5077485;28;20024;-81
2022/06/08 03:42:18;;;;;;;3.25;1.70;;;;;;;25.86;48.25;99024.13;5077384;28;20486;-82
2022/06/08 03:44:43;;;;;;;2.40;1.73;;;;;;;25.84;48.39;99018.03;5076503;28;20056;-81
2022/06/08 03:47:17;;;;;;;2.65;1.60;;;;;;;25.85;48.05;99020.59;5076433;28;20066;-82
2022/06/08 03:49:42;;;;;;;2.67;1.70;;;;;;;25.85;48.25;99017.06;5077705;28;20347;-84
2022/06/08 03:52:18;;;;;;;2.70;1.95;;;;;;;25.85;48.31;99017.06;5077252;28;20035;-82
2022/06/08 03:54:49;;;;;;;2.75;1.95;;;;;;;25.84;48.20;99020.72;5076127;28;20047;-82
2022/06/08 03:57:16;;;;;;;2.33;1.48;;;;;;;25.83;48.32;99021.69;5076068;28;20045;-83
2022/06/08 03:59:43;;;;;;;2.38;1.50;;;;;;;25.81;48.22;99013.81;5076417;28;20036;-84
2022/06/08 04:02:10;;;;;;;2.13;1.33;;;;;;;25.82;48.21;99014.66;5076100;28;20097;-82
2022/06/08 04:04:36;;;;;;;2.85;1.50;;;;;;;25.81;48.14;99019.16;5079223;28;20028;-81
2022/06/08 04:07:02;;;;;;;3.22;2.25;;;;;;;25.80;48.12;99016.66;5076429;28;20035;-82
2022/06/08 04:09:28;;;;;;;2.92;1.42;;;;;;;25.80;48.13;99019.31;5076209;28;20048;-81
2022/06/08 04:11:53;;;;;;;2.78;1.88;;;;;;;25.78;48.47;99026.59;5076284;28;20029;-83
2022/06/08 04:14:20;;;;;;;3.22;1.77;;;;;;;25.79;48.15;99020.28;5076800;28;20054;-83
2022/06/08 04:16:47;;;;;;;3.30;1.50;;;;;;;25.79;48.34;99026.47;5076915;28;20028;-83
2022/06/08 04:19:13;;;;;;;3.05;1.52;;;;;;;25.79;48.23;99020.28;5077321;28;20086;-82
2022/06/08 04:21:39;;;;;;;2.30;1.50;;;;;;;25.79;48.21;99023.81;5076701;28;20475;-82
2022/06/08 04:24:06;;;;;;;2.45;1.40;;;;;;;25.78;48.16;99029.28;5076311;28;20032;-80
2022/06/08 04:26:32;;;;;;;2.40;1.60;;;;;;;25.76;48.03;99032.06;5077579;28;20032;-82
2022/06/08 04:28:57;;;;;;;2.53;1.52;;;;;;;25.77;48.15;99035.59;5077995;28;20087;-83
2022/06/08 04:31:23;;;;;;;3.03;1.80;;;;;;;25.77;48.30;99035.59;5078898;28;20485;-83
2022/06/08 04:33:49;;;;;;;2.83;1.50;;;;;;;25.77;48.33;99039.13;5077858;28;20024;-83
2022/06/08 04:36:15;;;;;;;1.83;1.40;;;;;;;25.76;48.18;99031.25;5080006;28;20054;-83
2022/06/08 04:38:41;;;;;;;2.17;1.60;;;;;;;25.75;48.24;99041.06;5080362;28;20024;-83
2022/06/08 04:41:06;;;;;;;3.10;1.73;;;;;;;25.76;48.46;99036.59;5080870;28;20438;-86
2022/06/08 04:43:32;;;;;;;2.10;1.40;;;;;;;25.72;48.39;99036.84;5081968;28;20354;-86
2022/06/08 04:45:58;;;;;;;2.75;1.55;;;;;;;25.70;48.24;99038.81;5082817;28;20028;-83
2022/06/08 04:48:24;;;;;;;4.10;1.67;;;;;;;25.71;48.48;99047.69;5081719;28;20028;-85
2022/06/08 04:50:49;;;;;;;2.85;1.63;;;;;;;25.71;48.27;99053.88;5083030;28;20043;-83
2022/06/08 04:53:15;;;;;;;2.70;1.67;;;;;;;25.70;48.47;99049.50;5077885;28;20031;-83
2022/06/08 04:55:41;;;;;;;2.00;1.50;;;;;;;25.71;48.43;99056.53;5077815;28;20039;-83
2022/06/08 04:58:07;;;;;;;2.83;1.67;;;;;;;25.69;48.26;99053.16;5076707;28;20032;-83
2022/06/08 05:00:33;;;;;;;3.13;1.90;;;;;;;25.68;48.28;99054.16;5078325;28;20035;-83
2022/06/08 05:02:59;;;;;;;3.17;1.67;;;;;;;25.67;48.50;99060.44;5077801;28;20393;-83
2022/06/08 05:05:30;;;;;;;2.83;1.55;;;;;;;25.69;48.18;99074.53;5077051;28;20051;-82
2022/06/08 05:07:57;;;;;;;3.92;1.73;;;;;;;25.69;48.65;99068.34;5076234;28;20177;-83
2022/06/08 05:10:26;;;;;;;2.58;1.77;;;;;;;25.68;48.26;99078.19;5075508;28;20044;-83
2022/06/08 05:12:52;;;;;;;2.70;1.50;;;;;;;25.66;48.39;99074.78;5075649;28;20107;-83
2022/06/08 05:15:28;;;;;;;2.38;1.50;;;;;;;25.69;48.22;99082.56;5075739;28;20029;-84
2022/06/08 05:17:54;;;;;;;2.28;1.55;;;;;;;25.69;48.50;99095.91;5075615;28;20024;-82
2022/06/08 05:20:21;;;;;;;2.60;1.73;;;;;;;25.68;48.10;99099.56;5076842;28;20047;-84
2022/06/08 05:22:47;;;;;;;2.40;1.40;;;;;;;25.67;48.23;99105.03;5076184;28;20039;-84
2022/06/08 05:25:20;;;;;;;2.88;1.73;;;;;;;25.66;48.59;99106.84;5076638;28;20028;-83
2022/06/08 05:27:46;;;;;;;2.25;1.42;;;;;;;25.64;48.47;99111.50;5080155;28;20031;-84
2022/06/08 05:30:12;;;;;;;2.30;1.50;;;;;;;25.65;48.30;99115.84;5078508;28;20025;-82
2022/06/08 05:32:41;;;;;;;2.17;1.60;;;;;;;25.64;48.24;99114.16;5070063;28;20462;-82
2022/06/08 05:35:07;;;;;;;2.00;1.42;;;;;;;25.63;48.36;99123.16;5074983;28;20029;-84
2022/06/08 05:37:33;;;;;;;2.85;1.77;;;;;;;25.63;48.29;99127.66;5074316;28;20115;-85
2022/06/08 05:39:59;;;;;;;2.38;1.60;;;;;;;25.63;48.35;99128.50;5074377;28;20064;-85
2022/06/08 05:46:24;;;;;;;4.03;1.90;;;;;;;25.60;48.20;99134.09;5075439;28;20123;-82
2022/06/08 05:48:49;;;;;;;2.72;1.70;;;;;;;25.61;48.08;99141.13;5075557;28;20040;-84
2022/06/08 05:51:15;;;;;;;3.40;1.80;;;;;;;25.61;48.39;99138.47;5075031;28;20032;-82
2022/06/08 05:54:32;;;;;;;2.47;1.58;;;;;;;25.60;48.25;99140.31;5074113;28;20032;-82
2022/06/08 05:56:58;;;;;;;2.10;1.58;;;;;;;25.61;48.01;99143.81;5074527;28;20409;-84
2022/06/08 05:59:24;;;;;;;3.55;1.88;;;;;;;25.60;48.45;99148.31;5074329;28;20043;-83
2022/06/08 06:01:50;;;;;;;3.15;1.60;;;;;;;25.59;48.45;99148.44;5075106;28;20366;-84
2022/06/08 06:04:15;;;;;;;2.33;1.58;;;;;;;25.59;48.22;99151.13;5074537;28;20028;-86
2022/06/08 06:06:45;;;;;;;2.67;2.00;;;;;;;25.56;48.57;99156.75;5074467;28;20491;-82
2022/06/08 06:09:13;;;;;;;2.35;1.50;;;;;;;25.56;48.35;99162.09;5075088;28;20059;-82
2022/06/08 06:11:39;;;;;;;3.55;1.70;;;;;;;25.57;48.23;99161.09;5076370;28;20055;-84
2022/06/08 06:14:04;;;;;;;2.70;1.60;;;;;;;25.56;48.42;99160.25;5074375;28;20470;-82
2022/06/08 06:16:31;;;;;;;2.75;1.80;;;;;;;25.54;48.29;99166.69;5074441;28;20038;-83
2022/06/08 06:18:57;;;;;;;2.70;1.70;;;;;;;25.54;48.46;99180.03;5075368;28;20020;-84
2022/06/08 06:21:26;;;;;;;3.10;1.60;;;;;;;25.52;48.55;99174.78;5074257;28;20487;-84
2022/06/08 06:23:53;;;;;;;5.35;2.28;;;;;;;25.53;48.54;99192.56;5074230;28;20495;-82
2022/06/08 06:26:19;;;;;;;3.15;1.75;;;;;;;25.52;48.36;99190.00;5074022;28;20024;-82
2022/06/08 06:28:45;;;;;;;2.67;1.60;;;;;;;25.53;48.48;99202.38;5074095;28;20024;-83
2022/06/08 06:31:16;;;;;;;3.25;1.40;;;;;;;25.51;48.23;99197.16;5074080;28;20028;-84
2022/06/08 06:33:42;;;;;;;2.95;1.75;;;;;;;25.53;48.44;99229.09;5073972;28;20587;-82
2022/06/08 06:36:07;;;;;;;3.20;1.70;;;;;;;25.49;48.42;99233.84;5074106;28;20052;-86
2022/06/08 06:38:34;;;;;;;3.30;1.80;;;;;;;25.51;48.44;99242.56;5075209;28;20464;-81
2022/06/08 06:40:59;;;;;;;3.20;1.65;;;;;;;25.51;48.00;99247.06;5074460;28;20032;-83
2022/06/08 06:43:25;;;;;;;2.97;1.67;;;;;;;25.52;48.16;99243.41;5074870;28;20059;-86
2022/06/08 06:45:50;;;;;;;2.40;1.30;;;;;;;25.52;48.43;99248.75;5074430;28;20054;-83
2022/06/08 06:48:16;;;;;;;2.70;1.60;;;;;;;25.48;48.17;99238.31;5074178;28;20020;-84
2022/06/08 06:50:41;;;;;;;4.07;1.45;;;;;;;25.48;48.19;99243.66;5074221;28;20443;-85
2022/06/08 06:53:08;;;;;;;3.03;1.80;;;;;;;25.48;48.53;99238.31;5077210;28;20039;-85
2022/06/08 06:55:34;;;;;;;3.53;1.70;;;;;;;25.47;48.32;99241.97;5078708;28;20047;-87
2022/06/08 06:58:00;;;;;;;3.13;1.58;;;;;;;25.48;48.30;99237.50;5080901;28;20453;-87
2022/06/08 07:00:26;;;;;;;3.88;1.50;;;;;;;25.47;48.32;99246.50;5081575;28;20024;-85
2022/06/08 07:02:52;;;;;;;2.33;1.35;;;;;;;25.45;48.17;99243.94;5082995;28;20058;-86
2022/06/08 07:05:24;;;;;;;3.00;1.65;;;;;;;25.45;48.45;99246.59;5085401;28;20441;-87
2022/06/08 07:07:50;;;;;;;2.83;1.73;;;;;;;25.45;48.35;99251.09;5086324;28;20442;-87
2022/06/08 07:10:17;;;;;;;2.35;1.48;;;;;;;25.46;48.59;99258.13;5082643;28;20059;-86
2022/06/08 07:12:43;;;;;;;2.70;1.63;;;;;;;25.46;48.19;99245.63;5084420;28;20059;-85
2022/06/08 07:15:12;;;;;;;2.55;1.50;;;;;;;25.45;48.21;99249.28;5082035;28;20040;-83
2022/06/08 07:17:37;;;;;;;2.60;1.60;;;;;;;25.44;48.20;99258.28;5077208;28;20055;-83
2022/06/08 07:20:04;;;;;;;4.22;1.67;;;;;;;25.44;48.29;99273.44;5077117;28;20121;-83
2022/06/08 07:22:30;;;;;;;3.25;1.75;;;;;;;25.44;48.09;99265.44;5077949;28;20032;-83
2022/06/08 07:24:56;;;;;;;2.75;1.58;;;;;;;25.44;48.35;99274.31;5077826;28;20029;-84
2022/06/08 07:27:22;;;;;;;2.92;1.60;;;;;;;25.45;48.29;99281.34;5077113;28;20040;-84
2022/06/08 07:29:49;;;;;;;3.40;1.80;;;;;;;25.45;48.34;99286.69;5076532;28;20029;-83
2022/06/08 07:32:16;;;;;;;2.80;1.65;;;;;;;25.43;48.28;99280.59;5077188;28;20038;-83
2022/06/08 07:34:41;;;;;;;2.97;1.40;;;;;;;25.42;48.27;99289.59;5079982;28;20035;-84
2022/06/08 07:37:07;;;;;;;4.65;1.73;;;;;;;25.42;48.35;99297.59;5079052;28;20028;-84
2022/06/08 07:39:33;;;;;;;5.07;1.75;;;;;;;25.40;48.25;99294.22;5077624;28;20464;-83
2022/06/08 07:41:59;;;;;;;3.33;1.80;;;;;;;25.41;48.32;99306.59;5078871;28;20100;-84
2022/06/08 07:44:25;;;;;;;4.07;1.85;;;;;;;25.41;48.37;99303.06;5077665;28;20034;-85
2022/06/08 07:46:51;;;;;;;3.85;2.03;;;;;;;25.41;48.11;99305.72;5077776;28;20032;-83
2022/06/08 07:49:37;;;;;;;3.22;1.73;;;;;;;25.43;48.30;99309.16;5077582;28;20391;-84
2022/06/08 07:52:21;;;;;;;;;;;;;;;25.43;48.22;99309.97;5078192;28;20040;-82
2022/06/08 07:54:49;;;;;;;4.10;1.67;;;;;;;25.44;48.05;99319.72;5093128;28;20270;-84
2022/06/08 07:57:23;;;;;;;2.80;1.63;;;;;;;25.42;48.25;99324.31;5077519;28;20090;-84
2022/06/08 07:59:49;;;;;;;2.55;1.50;;;;;;;25.39;48.17;99327.25;5076497;28;20032;-82
2022/06/08 08:02:15;;;;;;;2.20;1.30;;;;;;;25.38;48.29;99333.56;5076985;28;20032;-83
2022/06/08 08:04:41;;;;;;;2.40;1.58;;;;;;;25.36;48.12;99324.81;5077176;28;20036;-82
2022/06/08 08:07:07;;;;;;;2.88;1.42;;;;;;;25.37;48.32;99328.34;5077492;28;20508;-85
2022/06/08 08:09:34;;;;;;;4.53;1.70;;;;;;;25.38;48.32;99322.03;5076565;28;20087;-84
2022/06/08 08:12:00;;;;;;;2.78;1.55;;;;;;;25.37;47.95;99326.50;5078346;28;20115;-85
2022/06/08 08:14:26;;;;;;;4.05;1.40;;;;;;;25.38;48.23;99333.56;5078568;28;20466;-83
2022/06/08 08:16:52;;;;;;;2.08;1.23;;;;;;;25.36;48.49;99340.84;5078906;28;20081;-85
2022/06/08 08:19:23;;;;;;;3.03;1.52;;;;;;;25.37;48.22;99333.69;5078583;28;20031;-84
2022/06/08 08:21:49;;;;;;;2.58;1.50;;;;;;;25.36;48.14;99335.50;5078402;28;20070;-85
2022/06/08 08:24:16;;;;;;;2.97;1.55;;;;;;;25.34;48.19;99335.63;5077912;28;20029;-83
2022/06/08 08:26:43;;;;;;;3.38;1.73;;;;;;;25.35;48.12;99333.81;5077798;28;20039;-84
2022/06/08 08:29:09;;;;;;;3.00;1.50;;;;;;;25.36;48.06;99323.97;5076396;28;20067;-83
2022/06/08 08:31:35;;;;;;;4.35;1.60;;;;;;;25.35;48.15;99328.47;5076718;28;20044;-83
2022/06/08 08:34:00;;;;;;;3.33;1.70;;;;;;;25.36;48.08;99319.47;5075736;28;20174;-85
2022/06/08 08:36:27;;;;;;;2.72;1.58;;;;;;;25.34;48.13;99321.44;5076627;28;20028;-84
2022/06/08 08:38:53;;;;;;;3.17;1.52;;;;;;;25.32;48.14;99318.00;5076303;28;20116;-82
2022/06/08 08:44:28;;;;;;;3.10;1.50;;;;;;;25.30;48.23;99322.66;5076970;28;20042;-85
2022/06/08 08:47:02;;;;;;;2.03;1.63;;;;;;;25.31;48.16;99321.66;5074987;28;20028;-84
2022/06/08 08:49:32;;;;;;;3.05;1.92;;;;;;;25.30;48.21;99320.84;5075160;28;20358;-83
2022/06/08 08:52:10;;;;;;;3.97;2.17;;;;;;;25.29;48.37;99320.97;5074907;28;20355;-85
2022/06/08 08:54:57;;;;;;;4.07;1.92;;;;;;;25.30;48.31;99322.66;5076104;28;20058;-84
2022/06/08 08:57:44;;;;;;;4.35;2.28;;;;;;;25.32;48.17;99323.34;5077120;28;20032;-85
2022/06/08 09:00:23;;;;;;;3.67;1.98;;;;;;;25.31;48.12;99327.00;5074808;28;20028;-83
2022/06/08 09:05:35;;;;;;;3.53;1.98;;;;;;;25.28;48.55;99316.59;5076493;28;20075;-84
2022/06/08 09:08:00;;;;;;;3.63;2.10;;;;;;;25.27;48.32;99321.06;5076353;28;20025;-83
2022/06/08 09:10:26;;;;;;;2.83;1.85;;;;;;;25.28;48.55;99316.59;5076279;28;20049;-85
2022/06/08 09:12:53;;;;;;;4.22;2.00;;;;;;;25.28;48.29;99319.25;5076198;28;20024;-86
2022/06/08 09:15:44;;;;;;;3.63;2.13;;;;;;;25.27;48.34;99318.41;5076433;28;20024;-85
2022/06/08 09:18:33;;;;;;;3.47;2.10;;;;;;;25.26;48.23;99313.19;5076263;28;20347;-84
2022/06/08 09:21:17;;;;;;;4.07;2.40;;;;;;;25.28;48.16;99311.25;5077859;28;20108;-84
2022/06/08 09:23:43;;;;;;;3.60;2.30;;;;;;;25.26;48.23;99314.03;5076849;28;20021;-84
2022/06/08 09:26:23;;;;;;;4.15;2.60;;;;;;;25.26;48.39;99314.03;5078450;28;20028;-84
2022/06/08 09:28:57;;;;;;;4.45;2.60;;;;;;;25.27;48.25;99310.38;5078371;28;20454;-85
2022/06/08 09:31:33;;;;;;;4.07;2.53;;;;;;;25.28;48.33;99308.59;5077416;28;20037;-85
2022/06/08 09:34:30;;;;;;;4.43;2.40;;;;;;;25.27;48.44;99305.06;5079011;28;20458;-86
2022/06/08 09:37:21;;;;;;;5.72;2.53;;;;;;;25.26;48.28;99305.16;5079304;28;20036;-85
2022/06/08 09:39:47;;;;;;;4.57;2.58;;;;;;;25.24;48.33;99308.00;5076861;28;20335;-82
2022/06/08 09:42:33;;;;;;;4.55;2.72;;;;;;;25.27;48.36;99307.72;5074241;28;20033;-83
2022/06/08 09:45:26;;;;;;;5.78;3.00;;;;;;;25.28;48.26;99300.56;5075512;28;20035;-83
2022/06/08 09:51:48;;;;;;;5.57;3.10;;;;;;;25.28;48.44;99300.56;5055018;28;20094;-85
2022/06/08 09:54:35;;;;;;;5.43;3.22;;;;;;;25.30;48.30;99303.94;5036896;28;20020;-83
2022/06/08 09:57:21;;;;;;;5.53;3.42;;;;;;;25.29;48.47;99302.25;5072734;28;20051;-82
2022/06/08 10:00:02;;;;;;;5.07;3.40;;;;;;;25.31;48.34;99305.66;5073991;28;20035;-83
2022/06/08 10:02:33;;;;;;;5.43;3.72;;;;;;;25.30;48.12;99298.63;5074240;28;20028;-85
2022/06/08 10:05:13;;;;;;;6.30;4.15;;;;;;;25.30;48.18;99288.78;5076423;28;20416;-85
2022/06/08 10:08:25;;;;;;;6.63;3.90;;;;;;;25.34;48.28;99300.91;5076463;28;20067;-83
2022/06/08 10:11:33;;;;;;;6.93;4.35;;;;;;;25.32;48.05;99302.00;5073691;28;20486;-83
2022/06/08 10:13:52;;;;;;;7.32;4.60;;;;;;;25.32;48.17;99302.00;5074754;28;20029;-83
2022/06/08 10:16:24;;;;;;;7.32;4.53;;;;;;;25.31;48.15;99298.50;5074829;28;20042;-83
2022/06/08 10:18:54;;;;;;;6.65;5.10;;;;;;;25.31;48.23;99309.19;5078479;28;20338;-86
2022/06/08 10:21:28;;;;;;;6.50;4.63;;;;;;;25.32;48.29;99307.34;5073534;28;20115;-85
2022/06/08 10:24:00;;;;;;;7.25;4.72;;;;;;;25.33;48.10;99314.41;5075068;28;20450;-83
2022/06/08 10:26:42;;;;;;;8.48;5.63;;;;;;;25.33;48.11;99309.06;5073794;28;20062;-83
2022/06/08 10:29:23;;;;;;;8.65;5.82;;;;;;;25.35;47.94;99307.09;5074914;28;20032;-84
2022/06/08 10:32:20;;;;;;;7.32;4.93;;;;;;;25.31;48.00;99306.50;5076887;28;20036;-82
2022/06/08 10:34:53;;;;;;;7.60;5.15;;;;;;;25.33;48.20;99309.06;5078206;28;20446;-83
2022/06/08 10:37:27;;;;;;;7.18;5.15;;;;;;;25.35;48.19;99307.09;5077502;28;20024;-82
2022/06/08 10:39:53;;;;;;;7.72;5.55;;;;;;;25.33;48.01;99298.38;5078048;28;20025;-85
2022/06/08 10:42:39;;;;;;;7.78;5.20;;;;;;;25.35;48.02;99301.75;5079461;28;20094;-84
2022/06/08 10:45:22;;;;;;;7.18;4.97;;;;;;;25.36;48.13;99291.94;5079689;28;20025;-84
2022/06/08 10:47:56;;;;;;;7.32;5.00;;;;;;;25.34;48.00;99297.41;5078140;28;20361;-85
2022/06/08 10:50:30;;;;;;;7.25;5.05;;;;;;;25.33;48.16;99293.88;5079504;28;20082;-84
2022/06/08 10:55:42;;;;;;;7.38;5.13;;;;;;;25.40;48.13;99294.22;5079965;28;20035;-84
2022/06/08 10:58:12;;;;;;;8.30;5.32;;;;;;;25.42;47.72;99297.59;5081039;28;20063;-85
2022/06/08 11:00:58;;;;;;;7.78;4.85;;;;;;;25.42;47.87;99294.94;5082256;28;20090;-85
2022/06/08 11:03:36;;;;;;;;;;;;;;;25.44;47.98;99290.31;5082475;28;20031;-84
2022/06/08 11:06:09;;;;;;;7.60;5.22;;;;;;;25.46;47.87;99288.38;5079299;28;20308;-83
2022/06/08 11:08:56;;;;;;;7.15;5.03;;;;;;;25.48;47.84;99291.75;5078976;28;20420;-84
2022/06/08 11:11:49;;;;;;;8.40;4.93;;;;;;;25.51;47.79;99295.16;5081227;28;20032;-83
2022/06/08 11:14:52;;;;;;;7.32;4.72;;;;;;;25.52;47.78;99294.19;5080161;28;20507;-86
2022/06/08 11:17:24;;;;;;;6.78;4.90;;;;;;;25.54;47.68;99286.91;5080439;28;20025;-84
2022/06/08 11:19:53;;;;;;;7.55;4.65;;;;;;;25.55;47.61;99281.44;5078481;28;20021;-83
2022/06/08 11:22:25;;;;;;;7.13;4.95;;;;;;;25.52;47.60;99288.84;5078233;28;20031;-82
2022/06/08 11:24:58;;;;;;;6.47;4.53;;;;;;;25.52;47.56;99283.50;5077131;28;20038;-82
2022/06/08 11:27:38;;;;;;;6.93;4.70;;;;;;;25.51;47.70;99279.13;5077102;28;20039;-82
2022/06/08 11:30:23;;;;;;;7.47;4.47;;;;;;;25.54;47.54;99282.41;5077230;28;20027;-85
2022/06/08 11:33:14;;;;;;;6.30;4.50;;;;;;;25.55;47.70;99286.78;5077247;28;20065;-82
2022/06/08 11:35:58;;;;;;;6.68;4.47;;;;;;;25.56;47.53;99283.13;5075262;28;20040;-84
2022/06/08 11:38:56;;;;;;;6.28;4.22;;;;;;;25.57;47.65;99278.66;5078957;28;20046;-84
2022/06/08 11:41:25;;;;;;;7.35;4.32;;;;;;;25.58;47.65;99275.00;5063680;28;20094;-83
2022/06/08 11:43:51;;;;;;;6.00;4.40;;;;;;;25.56;47.78;99283.13;5082225;28;20067;-85
2022/06/08 11:46:42;;;;;;;5.60;3.95;;;;;;;25.56;47.70;99282.31;5081399;28;20028;-84
2022/06/08 11:49:54;;;;;;;6.43;4.63;;;;;;;25.55;47.84;99285.94;5075088;28;20027;-85
2022/06/08 11:52:28;;;;;;;6.05;3.88;;;;;;;25.54;47.67;99284.22;5054724;28;20017;-82
2022/06/08 11:55:22;;;;;;;6.60;3.92;;;;;;;25.56;47.59;99287.66;5047196;28;20033;-84
2022/06/08 11:57:57;;;;;;;5.68;3.67;;;;;;;25.55;47.80;99280.56;5065124;28;20036;-86
2022/06/08 12:00:53;;;;;;;6.80;3.90;;;;;;;25.55;47.58;99286.78;5072873;28;20466;-85
2022/06/08 12:03:42;;;;;;;5.88;4.15;;;;;;;25.55;47.76;99285.94;5059643;28;20037;-83
2022/06/08 12:06:14;;;;;;;6.63;4.10;;;;;;;25.55;47.77;99285.94;5065797;28;20025;-85
2022/06/08 12:08:47;;;;;;;5.40;3.65;;;;;;;25.54;47.74;99287.75;5070525;28;20056;-85
2022/06/08 12:11:15;;;;;;;5.85;3.97;;;;;;;25.55;47.82;99291.25;5071748;28;20029;-83
2022/06/08 12:14:11;;;;;;;6.22;3.92;;;;;;;25.55;47.53;99292.13;5070933;28;20032;-85